createdAt,value
2022-08-17T00:00:49.327Z,1013.0
2022-08-17T00:15:22.973Z,1013.0
2022-08-17T00:30:23.110Z,1013.0
2022-08-17T00:45:24.151Z,1013.0
2022-08-17T01:00:22.866Z,1013.0
2022-08-17T01:15:23.073Z,1013.0
2022-08-17T01:30:58.541Z,1013.0
2022-08-17T01:45:22.944Z,1013.0
2022-08-17T02:00:23.004Z,1013.0
2022-08-17T02:15:22.906Z,1013.0
2022-08-17T02:30:59.308Z,1013.0
2022-08-17T02:45:23.177Z,1013.0
2022-08-17T03:00:22.968Z,1013.0
2022-08-17T03:15:22.925Z,1013.0
2022-08-17T03:30:23.203Z,1014.0
2022-08-17T03:45:23.271Z,1014.0
2022-08-17T04:00:23.905Z,1014.0
2022-08-17T04:15:23.364Z,1014.0
2022-08-17T04:30:23.263Z,1014.0
2022-08-17T04:45:23.356Z,1014.0
2022-08-17T05:00:23.524Z,1014.0
2022-08-17T05:15:23.422Z,1014.0
2022-08-17T05:30:23.756Z,1014.0
2022-08-17T05:45:32.075Z,1014.0
2022-08-17T06:00:30.054Z,1014.0
2022-08-17T06:15:23.508Z,1014.5
2022-08-17T06:30:23.491Z,1015.0
2022-08-17T06:45:23.471Z,1015.0
2022-08-17T07:00:23.571Z,1014.0
2022-08-17T07:15:23.644Z,1014.0
2022-08-17T07:30:23.595Z,1014.0
2022-08-17T07:45:23.649Z,1014.0
2022-08-17T08:00:26.689Z,1014.0
2022-08-17T08:15:23.671Z,1014.7
2022-08-17T08:30:23.577Z,1015.0
2022-08-17T08:45:23.749Z,1015.0
2022-08-17T09:00:23.424Z,1015.0
2022-08-17T09:15:24.236Z,1015.0
2022-08-17T09:30:23.867Z,1015.0
2022-08-17T09:45:23.833Z,1015.0
2022-08-17T10:00:26.040Z,1015.0
2022-08-17T10:15:32.853Z,1015.0
2022-08-17T10:30:33.527Z,1015.0
2022-08-17T10:45:32.881Z,1015.3
2022-08-17T11:00:33.047Z,1015.0
2022-08-17T11:15:22.972Z,1015.3
2022-08-17T11:30:22.890Z,1016.0
2022-08-17T11:45:32.589Z,1016.0
2022-08-17T12:00:22.987Z,1016.0
2022-08-17T12:15:23.073Z,1016.0
2022-08-17T12:30:23.025Z,1015.0
2022-08-17T12:45:23.022Z,1015.0
2022-08-17T13:00:23.261Z,1014.7
2022-08-17T13:15:23.108Z,1014.0
2022-08-17T13:30:23.062Z,1014.0
2022-08-17T13:45:35.344Z,1014.0
2022-08-17T14:00:23.069Z,1014.0
2022-08-17T14:15:23.081Z,1014.0
2022-08-17T14:30:23.231Z,1014.0
2022-08-17T14:45:30.389Z,1014.0
2022-08-17T15:00:23.216Z,1014.0
2022-08-17T15:15:23.217Z,1014.0
2022-08-17T15:30:23.773Z,1014.0
2022-08-17T15:45:23.766Z,1013.0
2022-08-17T16:00:25.979Z,1013.0
2022-08-17T16:15:23.347Z,1013.0
2022-08-17T16:30:23.486Z,1013.0
2022-08-17T16:45:23.459Z,1013.0
2022-08-17T17:00:25.053Z,1013.0
2022-08-17T17:15:23.464Z,1013.0
2022-08-17T17:30:23.674Z,1013.0
2022-08-17T17:45:23.414Z,1013.0
2022-08-17T18:00:23.457Z,1013.0
2022-08-17T18:15:24.865Z,1013.0
2022-08-17T18:30:23.653Z,1013.0
2022-08-17T18:45:23.535Z,1013.5
2022-08-17T19:00:24.592Z,1014.0
2022-08-17T19:15:23.663Z,1014.0
2022-08-17T19:30:23.739Z,1014.0
2022-08-17T19:45:23.751Z,1014.0
2022-08-17T20:00:23.873Z,1014.0
2022-08-17T20:15:23.815Z,1014.0
2022-08-17T20:30:23.641Z,1014.0
2022-08-17T20:45:23.744Z,1014.0
2022-08-17T21:00:23.762Z,1014.0
2022-08-17T21:15:23.780Z,1014.3
2022-08-17T21:30:24.516Z,1015.0
2022-08-17T21:45:32.870Z,1016.0
2022-08-17T22:00:44.995Z,1016.0
2022-08-17T22:15:22.869Z,1016.7
2022-08-17T22:30:23.163Z,1017.0
2022-08-17T22:45:23.134Z,1017.0
2022-08-17T23:00:24.210Z,1017.0
2022-08-17T23:15:23.233Z,1017.0
2022-08-17T23:30:23.148Z,1017.0
2022-08-17T23:45:23.120Z,1017.0
